createdAt,value
2023-01-15T00:01:20.099Z,100.00
2023-01-15T00:03:49.010Z,100.00
2023-01-15T00:06:17.811Z,100.00
2023-01-15T00:08:47.538Z,100.00
2023-01-15T00:11:15.876Z,100.00
2023-01-15T00:13:44.323Z,99.43
2023-01-15T00:16:14.335Z,99.14
2023-01-15T00:18:42.611Z,99.79
2023-01-15T00:21:12.870Z,99.45
2023-01-15T00:23:58.616Z,99.58
2023-01-15T00:26:47.810Z,99.64
2023-01-15T00:29:16.139Z,100.00
2023-01-15T00:31:45.580Z,99.58
2023-01-15T00:34:13.659Z,98.96
2023-01-15T00:36:41.941Z,99.30
2023-01-15T00:39:10.057Z,99.24
2023-01-15T00:41:39.694Z,99.62
2023-01-15T00:44:07.650Z,99.39
2023-01-15T00:46:35.958Z,99.24
2023-01-15T00:49:04.073Z,98.79
2023-01-15T00:51:32.603Z,98.38
2023-01-15T00:54:00.919Z,98.94
2023-01-15T00:56:29.352Z,98.57
2023-01-15T00:59:00.232Z,98.86
2023-01-15T01:01:28.881Z,98.29
2023-01-15T01:03:56.984Z,98.72
2023-01-15T01:06:25.336Z,98.29
2023-01-15T01:08:53.374Z,98.16
2023-01-15T01:11:26.567Z,97.96
2023-01-15T01:13:55.527Z,99.05
2023-01-15T01:16:30.320Z,99.21
2023-01-15T01:18:59.367Z,99.85
2023-01-15T01:21:28.492Z,100.00
2023-01-15T01:23:56.557Z,100.00
2023-01-15T01:26:24.861Z,100.00
2023-01-15T01:28:54.106Z,100.00
2023-01-15T01:31:24.897Z,100.00
2023-01-15T01:33:55.371Z,100.00
2023-01-15T01:36:28.326Z,100.00
2023-01-15T01:38:56.479Z,100.00
2023-01-15T01:41:25.329Z,100.00
2023-01-15T01:43:58.481Z,100.00
2023-01-15T01:46:29.364Z,100.00
2023-01-15T01:49:00.195Z,100.00
2023-01-15T01:51:30.341Z,100.00
2023-01-15T01:53:59.449Z,100.00
2023-01-15T01:56:28.280Z,100.00
2023-01-15T01:58:56.876Z,100.00
2023-01-15T02:01:28.010Z,100.00
2023-01-15T02:03:56.079Z,100.00
2023-01-15T02:06:27.126Z,100.00
2023-01-15T02:08:55.570Z,100.00
2023-01-15T02:11:25.107Z,100.00
2023-01-15T02:13:57.068Z,100.00
2023-01-15T02:16:29.062Z,100.00
2023-01-15T02:19:02.067Z,100.00
2023-01-15T02:21:40.695Z,100.00
2023-01-15T02:24:11.962Z,100.00
2023-01-15T02:27:03.640Z,100.00
2023-01-15T02:29:39.568Z,100.00
2023-01-15T02:32:11.654Z,100.00
2023-01-15T02:34:44.252Z,100.00
2023-01-15T02:37:15.983Z,100.00
2023-01-15T02:39:46.898Z,100.00
2023-01-15T02:42:19.140Z,100.00
2023-01-15T02:44:52.621Z,100.00
2023-01-15T02:47:24.858Z,100.00
2023-01-15T02:49:55.035Z,100.00
2023-01-15T02:52:26.791Z,100.00
2023-01-15T02:54:59.727Z,100.00
2023-01-15T02:57:31.900Z,100.00
2023-01-15T03:00:01.810Z,100.00
2023-01-15T03:02:33.817Z,100.00
2023-01-15T03:05:06.718Z,100.00
2023-01-15T03:07:38.601Z,100.00
2023-01-15T03:10:08.027Z,100.00
2023-01-15T03:13:02.247Z,100.00
2023-01-15T03:16:01.525Z,100.00
2023-01-15T03:18:34.357Z,100.00
2023-01-15T03:21:06.967Z,93.48
2023-01-15T03:23:37.752Z,92.69
2023-01-15T03:26:06.913Z,90.30
2023-01-15T03:28:42.374Z,89.19
2023-01-15T03:31:10.412Z,89.59
2023-01-15T03:33:38.746Z,88.78
2023-01-15T03:36:13.747Z,89.76
2023-01-15T03:38:50.503Z,90.25
2023-01-15T03:41:36.669Z,90.06
2023-01-15T03:44:11.455Z,89.77
2023-01-15T03:46:54.204Z,90.63
2023-01-15T03:49:29.427Z,91.16
2023-01-15T03:52:02.541Z,91.71
2023-01-15T03:54:36.647Z,91.88
2023-01-15T03:57:08.542Z,92.60
2023-01-15T03:59:43.387Z,92.07
2023-01-15T04:02:13.745Z,93.48
2023-01-15T04:04:42.600Z,91.81
2023-01-15T04:07:11.300Z,92.80
2023-01-15T04:09:41.798Z,93.89
2023-01-15T04:12:12.499Z,93.46
2023-01-15T04:14:46.644Z,94.80
2023-01-15T04:17:21.012Z,94.52
2023-01-15T04:19:49.228Z,94.26
2023-01-15T04:22:17.306Z,93.47
2023-01-15T04:24:46.384Z,94.13
2023-01-15T04:27:14.341Z,93.94
2023-01-15T04:29:42.618Z,93.51
2023-01-15T04:32:11.945Z,93.88
2023-01-15T04:34:40.244Z,93.10
2023-01-15T04:37:08.275Z,93.66
2023-01-15T04:39:36.695Z,94.23
2023-01-15T04:42:22.634Z,93.59
2023-01-15T04:44:50.960Z,93.29
2023-01-15T04:47:20.299Z,92.99
2023-01-15T04:49:48.646Z,92.78
2023-01-15T04:52:17.072Z,93.20
2023-01-15T04:54:45.484Z,92.84
2023-01-15T04:57:13.478Z,93.23
2023-01-15T04:59:41.685Z,92.65
2023-01-15T05:02:09.888Z,93.00
2023-01-15T05:04:39.582Z,93.81
2023-01-15T05:07:07.702Z,93.71
2023-01-15T05:09:36.486Z,93.72
2023-01-15T05:12:04.907Z,93.21
2023-01-15T05:14:33.136Z,92.32
2023-01-15T05:17:01.119Z,93.18
2023-01-15T05:19:29.372Z,93.82
2023-01-15T05:21:58.699Z,93.48
2023-01-15T05:24:26.968Z,93.80
2023-01-15T05:26:55.139Z,93.14
2023-01-15T05:29:23.548Z,93.07
2023-01-15T05:31:51.577Z,93.78
2023-01-15T05:34:19.823Z,94.01
2023-01-15T05:36:47.862Z,93.84
2023-01-15T05:39:17.485Z,94.39
2023-01-15T05:41:51.750Z,93.54
2023-01-15T05:44:22.705Z,93.47
2023-01-15T05:46:51.743Z,93.99
2023-01-15T05:49:21.308Z,94.88
2023-01-15T05:51:49.851Z,95.13
2023-01-15T05:54:22.356Z,95.70
2023-01-15T05:56:50.403Z,95.72
2023-01-15T05:59:20.306Z,94.29
2023-01-15T06:01:48.381Z,94.50
2023-01-15T06:04:17.800Z,93.61
2023-01-15T06:06:45.894Z,94.20
2023-01-15T06:09:14.589Z,91.92
2023-01-15T06:11:44.137Z,91.20
2023-01-15T06:14:12.755Z,91.80
2023-01-15T06:16:41.696Z,90.73
2023-01-15T06:19:11.088Z,91.26
2023-01-15T06:21:39.625Z,90.28
2023-01-15T06:24:08.677Z,90.74
2023-01-15T06:26:37.066Z,91.29
2023-01-15T06:29:06.681Z,92.11
2023-01-15T06:31:34.869Z,92.64
2023-01-15T06:34:03.197Z,92.00
2023-01-15T06:36:31.194Z,91.93
2023-01-15T06:38:59.430Z,89.42
2023-01-15T06:41:41.795Z,88.65
2023-01-15T06:44:31.127Z,87.78
2023-01-15T06:47:16.977Z,88.63
2023-01-15T06:49:45.223Z,88.11
2023-01-15T06:52:13.267Z,88.08
2023-01-15T06:54:41.512Z,87.44
2023-01-15T06:57:09.547Z,88.54
2023-01-15T06:59:39.137Z,88.32
2023-01-15T07:02:07.137Z,88.93
2023-01-15T07:04:35.373Z,88.65
2023-01-15T07:07:03.375Z,89.79
2023-01-15T07:09:32.004Z,88.92
2023-01-15T07:12:00.051Z,90.18
2023-01-15T07:14:28.967Z,89.41
2023-01-15T07:16:59.128Z,89.45
2023-01-15T07:19:27.695Z,88.93
2023-01-15T07:21:56.004Z,89.23
2023-01-15T07:24:24.289Z,89.69
2023-01-15T07:26:52.384Z,89.58
2023-01-15T07:29:21.414Z,89.17
2023-01-15T07:31:49.504Z,90.24
2023-01-15T07:34:19.454Z,89.18
2023-01-15T07:36:47.686Z,89.50
2023-01-15T07:39:16.148Z,89.65
2023-01-15T07:42:01.869Z,88.72
2023-01-15T07:44:53.265Z,89.36
2023-01-15T07:47:40.408Z,89.54
2023-01-15T07:50:12.329Z,89.19
2023-01-15T07:52:40.365Z,87.76
2023-01-15T07:55:10.096Z,86.70
2023-01-15T07:57:38.529Z,87.22
2023-01-15T08:00:09.051Z,87.68
2023-01-15T08:02:40.332Z,87.34
2023-01-15T08:05:11.480Z,86.33
2023-01-15T08:07:40.482Z,86.77
2023-01-15T08:10:10.364Z,87.27
2023-01-15T08:12:57.487Z,86.40
2023-01-15T08:15:26.323Z,86.62
2023-01-15T08:17:54.372Z,87.48
2023-01-15T08:20:25.468Z,87.90
2023-01-15T08:22:54.180Z,87.24
2023-01-15T08:25:24.182Z,86.50
2023-01-15T08:27:52.648Z,87.22
2023-01-15T08:30:23.585Z,87.19
2023-01-15T08:32:51.689Z,87.40
2023-01-15T08:35:20.115Z,88.35
2023-01-15T08:37:49.515Z,88.37
2023-01-15T08:40:18.200Z,86.95
2023-01-15T08:42:46.180Z,88.18
2023-01-15T08:45:14.743Z,88.64
2023-01-15T08:47:42.815Z,89.55
2023-01-15T08:50:12.638Z,90.17
2023-01-15T08:52:41.028Z,90.90
2023-01-15T08:55:11.112Z,90.53
2023-01-15T08:57:39.235Z,89.84
2023-01-15T09:00:09.216Z,89.59
2023-01-15T09:02:37.226Z,89.00
2023-01-15T09:05:06.278Z,88.67
2023-01-15T09:07:35.539Z,88.99
2023-01-15T09:10:04.391Z,89.54
2023-01-15T09:12:33.777Z,89.73
2023-01-15T09:15:03.080Z,89.62
2023-01-15T09:17:33.380Z,90.25
2023-01-15T09:20:02.992Z,90.14
2023-01-15T09:22:31.381Z,89.97
2023-01-15T09:24:59.989Z,90.18
2023-01-15T09:27:28.661Z,89.99
2023-01-15T09:29:58.435Z,89.96
2023-01-15T09:32:26.553Z,89.14
2023-01-15T09:34:54.877Z,88.44
2023-01-15T09:37:22.869Z,88.68
2023-01-15T09:39:51.202Z,89.26
2023-01-15T09:42:28.666Z,89.47
2023-01-15T09:45:10.933Z,89.13
2023-01-15T09:47:44.356Z,89.35
2023-01-15T09:50:22.455Z,89.40
2023-01-15T09:53:11.962Z,89.32
2023-01-15T09:55:44.081Z,89.99
2023-01-15T09:58:12.523Z,89.46
2023-01-15T10:00:45.656Z,88.92
2023-01-15T10:03:22.119Z,87.94
2023-01-15T10:05:55.516Z,87.25
2023-01-15T10:08:26.393Z,87.24
2023-01-15T10:10:56.879Z,87.63
2023-01-15T10:13:29.926Z,86.80
2023-01-15T10:16:00.007Z,87.71
2023-01-15T10:18:29.348Z,87.58
2023-01-15T10:21:24.796Z,86.93
2023-01-15T10:24:02.818Z,85.91
2023-01-15T10:26:37.941Z,84.61
2023-01-15T10:29:13.273Z,86.27
2023-01-15T10:31:53.084Z,85.79
2023-01-15T10:34:56.001Z,86.14
2023-01-15T10:37:28.392Z,85.65
2023-01-15T10:40:10.616Z,85.01
2023-01-15T10:42:44.644Z,84.78
2023-01-15T10:45:16.101Z,84.99
2023-01-15T10:47:49.616Z,84.08
2023-01-15T10:50:19.684Z,79.97
2023-01-15T10:52:50.493Z,80.64
2023-01-15T10:55:22.351Z,80.91
2023-01-15T10:58:09.103Z,81.61
2023-01-15T11:00:38.289Z,82.67
2023-01-15T11:03:15.014Z,83.92
2023-01-15T11:05:45.662Z,83.38
2023-01-15T11:09:06.112Z,83.76
2023-01-15T11:11:18.891Z,84.46
2023-01-15T11:14:20.500Z,83.89
2023-01-15T11:17:06.287Z,84.94
2023-01-15T11:19:38.459Z,84.24
2023-01-15T11:22:12.325Z,84.27
2023-01-15T11:24:47.748Z,84.09
2023-01-15T11:27:17.835Z,84.74
2023-01-15T11:29:46.674Z,85.57
2023-01-15T11:32:21.535Z,85.48
2023-01-15T11:34:58.758Z,83.83
2023-01-15T11:37:27.581Z,84.08
2023-01-15T11:39:56.775Z,83.45
2023-01-15T11:42:42.514Z,82.53
2023-01-15T11:45:32.837Z,84.63
2023-01-15T11:48:18.652Z,84.29
2023-01-15T11:50:57.009Z,85.35
2023-01-15T11:53:26.780Z,85.96
2023-01-15T11:56:01.172Z,86.87
2023-01-15T11:58:30.535Z,88.00
2023-01-15T12:00:59.386Z,88.73
2023-01-15T12:03:31.005Z,88.76
2023-01-15T12:06:05.153Z,89.47
2023-01-15T12:08:51.296Z,90.70
2023-01-15T12:11:32.829Z,91.70
2023-01-15T12:14:11.249Z,91.81
2023-01-15T12:16:45.897Z,92.21
2023-01-15T12:19:17.865Z,92.05
2023-01-15T12:22:09.094Z,92.38
2023-01-15T12:24:59.171Z,93.92
2023-01-15T12:27:44.195Z,92.92
2023-01-15T12:30:23.196Z,92.34
2023-01-15T12:32:55.602Z,91.71
2023-01-15T12:35:29.050Z,91.43
2023-01-15T12:38:01.039Z,92.12
2023-01-15T12:40:32.310Z,91.00
2023-01-15T12:43:18.007Z,89.65
2023-01-15T12:45:48.164Z,88.38
2023-01-15T12:48:20.862Z,87.31
2023-01-15T12:50:49.985Z,82.88
2023-01-15T12:53:21.944Z,76.31
2023-01-15T12:55:53.213Z,76.52
2023-01-15T12:58:38.662Z,71.07
2023-01-15T13:01:14.656Z,62.96
2023-01-15T13:04:01.346Z,61.38
2023-01-15T13:06:30.008Z,59.98
2023-01-15T13:09:04.430Z,58.02
2023-01-15T13:11:32.904Z,55.82
2023-01-15T13:14:01.397Z,53.17
2023-01-15T13:16:39.610Z,54.37
2023-01-15T13:19:20.746Z,55.36
2023-01-15T13:21:52.008Z,54.32
2023-01-15T13:24:31.736Z,51.12
2023-01-15T13:27:07.146Z,54.35
2023-01-15T13:29:45.457Z,52.13
2023-01-15T13:32:16.855Z,53.49
2023-01-15T13:34:48.786Z,51.68
2023-01-15T13:37:21.995Z,50.32
2023-01-15T13:39:53.024Z,48.91
2023-01-15T13:42:35.300Z,49.73
2023-01-15T13:45:22.859Z,50.81
2023-01-15T13:47:53.704Z,53.07
2023-01-15T13:50:29.064Z,51.31
2023-01-15T13:53:09.158Z,53.59
2023-01-15T13:55:40.619Z,54.10
2023-01-15T13:58:28.289Z,55.82
2023-01-15T14:01:08.382Z,56.78
2023-01-15T14:03:38.608Z,58.54
2023-01-15T14:06:09.092Z,56.07
2023-01-15T14:08:42.078Z,53.95
2023-01-15T14:11:35.658Z,54.19
2023-01-15T14:14:17.063Z,50.80
2023-01-15T14:16:54.733Z,53.31
2023-01-15T14:19:37.356Z,53.26
2023-01-15T14:22:33.816Z,51.75
2023-01-15T14:25:18.538Z,51.18
2023-01-15T14:32:28.182Z,52.72
2023-01-15T14:34:57.119Z,53.45
2023-01-15T14:37:27.749Z,55.19
2023-01-15T14:39:58.571Z,57.03
2023-01-15T14:42:46.311Z,61.14
2023-01-15T14:45:25.976Z,62.40
2023-01-15T14:47:56.545Z,65.21
2023-01-15T14:50:34.692Z,64.61
2023-01-15T14:53:07.945Z,64.92
2023-01-15T14:55:39.853Z,64.30
2023-01-15T14:58:14.461Z,63.25
2023-01-15T15:00:45.351Z,61.78
2023-01-15T15:03:17.803Z,62.11
2023-01-15T15:05:49.625Z,62.74
2023-01-15T15:08:19.856Z,62.99
2023-01-15T15:10:52.069Z,66.28
2023-01-15T15:13:29.063Z,67.25
2023-01-15T15:16:05.170Z,69.47
2023-01-15T15:18:39.070Z,70.04
2023-01-15T15:21:11.307Z,71.35
2023-01-15T15:23:43.071Z,71.32
2023-01-15T15:26:24.396Z,72.18
2023-01-15T15:29:02.898Z,72.80
2023-01-15T15:31:37.081Z,73.83
2023-01-15T15:34:08.241Z,74.92
2023-01-15T15:36:39.535Z,74.31
2023-01-15T15:39:18.291Z,74.52
2023-01-15T15:42:06.982Z,75.96
2023-01-15T15:45:06.147Z,77.12
2023-01-15T15:47:56.585Z,75.59
2023-01-15T15:50:27.674Z,75.89
2023-01-15T15:52:57.382Z,75.99
2023-01-15T15:55:27.255Z,75.73
2023-01-15T15:57:57.780Z,76.28
2023-01-15T16:00:30.727Z,76.47
2023-01-15T16:03:02.924Z,76.36
2023-01-15T16:05:32.615Z,75.86
2023-01-15T16:08:09.587Z,76.46
2023-01-15T16:10:38.318Z,76.09
2023-01-15T16:13:08.262Z,76.14
2023-01-15T16:15:41.149Z,75.74
2023-01-15T16:18:19.277Z,76.09
2023-01-15T16:20:49.422Z,76.22
2023-01-15T16:23:22.660Z,75.88
2023-01-15T16:26:02.412Z,76.01
2023-01-15T16:28:39.369Z,76.11
2023-01-15T16:31:07.758Z,76.54
2023-01-15T16:33:37.650Z,76.41
2023-01-15T16:36:08.706Z,76.49
2023-01-15T16:38:40.267Z,76.79
2023-01-15T16:41:08.965Z,76.86
2023-01-15T16:43:52.090Z,75.62
2023-01-15T16:46:22.236Z,75.61
2023-01-15T16:48:50.663Z,75.73
2023-01-15T16:51:32.106Z,75.71
2023-01-15T16:54:01.967Z,75.65
2023-01-15T16:56:50.123Z,75.07
2023-01-15T16:59:19.874Z,75.38
2023-01-15T17:01:48.687Z,75.78
2023-01-15T17:04:23.905Z,75.15
2023-01-15T17:07:01.693Z,75.84
2023-01-15T17:09:33.064Z,75.23
2023-01-15T17:12:03.007Z,75.52
2023-01-15T17:14:31.499Z,75.93
2023-01-15T17:17:18.723Z,75.02
2023-01-15T17:19:47.227Z,74.47
2023-01-15T17:22:20.430Z,74.75
2023-01-15T17:24:49.135Z,73.76
2023-01-15T17:27:17.184Z,72.94
2023-01-15T17:29:45.664Z,73.04
2023-01-15T17:32:15.910Z,73.81
2023-01-15T17:34:44.205Z,73.99
2023-01-15T17:37:12.226Z,74.83
2023-01-15T17:39:41.820Z,74.18
2023-01-15T17:42:20.001Z,74.53
2023-01-15T17:44:48.340Z,74.81
2023-01-15T17:47:16.513Z,74.69
2023-01-15T17:49:45.038Z,74.36
2023-01-15T17:52:18.681Z,74.73
2023-01-15T17:55:06.223Z,75.61
2023-01-15T17:57:52.012Z,75.00
2023-01-15T18:00:38.174Z,74.94
2023-01-15T18:03:24.011Z,74.70
2023-01-15T18:05:52.526Z,74.77
2023-01-15T18:08:21.189Z,74.69
2023-01-15T18:10:51.067Z,74.34
2023-01-15T18:13:19.393Z,74.12
2023-01-15T18:15:47.744Z,73.14
2023-01-15T18:18:17.350Z,73.99
2023-01-15T18:20:46.228Z,74.04
2023-01-15T18:23:14.394Z,73.42
2023-01-15T18:25:46.075Z,73.79
2023-01-15T18:28:15.647Z,73.91
2023-01-15T18:30:43.958Z,73.59
2023-01-15T18:33:11.966Z,73.97
2023-01-15T18:35:40.351Z,73.79
2023-01-15T18:38:08.395Z,73.57
2023-01-15T18:40:36.639Z,73.19
2023-01-15T18:43:22.295Z,73.05
2023-01-15T18:46:09.423Z,72.81
2023-01-15T18:48:37.511Z,72.74
2023-01-15T18:51:09.148Z,72.69
2023-01-15T18:53:37.400Z,72.61
2023-01-15T18:56:06.911Z,72.55
2023-01-15T18:58:34.907Z,72.38
2023-01-15T19:01:09.025Z,72.71
2023-01-15T19:03:37.094Z,73.36
2023-01-15T19:06:10.144Z,73.08
2023-01-15T19:08:38.162Z,72.74
2023-01-15T19:11:12.100Z,72.44
2023-01-15T19:13:40.405Z,72.55
2023-01-15T19:16:27.828Z,73.28
2023-01-15T19:18:55.908Z,73.20
2023-01-15T19:21:24.927Z,73.59
2023-01-15T19:23:53.281Z,73.87
2023-01-15T19:26:21.591Z,73.76
2023-01-15T19:28:49.585Z,73.45
2023-01-15T19:31:39.044Z,73.01
2023-01-15T19:34:32.699Z,73.12
2023-01-15T19:37:00.166Z,73.50
2023-01-15T19:39:28.597Z,73.64
2023-01-15T19:42:14.766Z,73.44
2023-01-15T19:45:00.416Z,73.96
2023-01-15T19:47:49.865Z,73.66
2023-01-15T19:50:21.098Z,74.39
2023-01-15T19:52:50.774Z,74.54
2023-01-15T19:55:19.419Z,74.60
2023-01-15T19:57:49.564Z,75.21
2023-01-15T20:00:19.421Z,74.36
2023-01-15T20:02:49.344Z,74.72
2023-01-15T20:05:17.739Z,74.55
2023-01-15T20:07:46.144Z,74.18
2023-01-15T20:10:15.514Z,74.15
2023-01-15T20:12:58.154Z,74.04
2023-01-15T20:15:26.459Z,74.59
2023-01-15T20:17:56.054Z,74.09
2023-01-15T20:20:24.339Z,74.25
2023-01-15T20:22:55.890Z,74.45
2023-01-15T20:25:23.967Z,74.53
2023-01-15T20:27:52.275Z,74.42
2023-01-15T20:30:22.247Z,73.60
2023-01-15T20:32:51.435Z,72.90
2023-01-15T20:35:25.121Z,72.92
2023-01-15T20:37:53.767Z,73.30
2023-01-15T20:40:23.507Z,73.17
2023-01-15T20:43:09.435Z,73.67
2023-01-15T20:45:38.299Z,73.23
2023-01-15T20:48:24.717Z,73.51
2023-01-15T20:51:03.264Z,73.61
2023-01-15T20:53:34.257Z,73.73
2023-01-15T20:56:02.619Z,73.76
2023-01-15T20:58:31.048Z,74.31
2023-01-15T21:01:03.385Z,73.52
2023-01-15T21:03:31.764Z,74.01
2023-01-15T21:06:03.780Z,74.19
2023-01-15T21:08:33.411Z,74.24
2023-01-15T21:11:01.675Z,74.34
2023-01-15T21:13:30.996Z,74.48
2023-01-15T21:16:01.017Z,74.80
2023-01-15T21:18:30.818Z,75.00
2023-01-15T21:20:58.881Z,74.05
2023-01-15T21:23:28.729Z,74.31
2023-01-15T21:26:00.594Z,74.92
2023-01-15T21:28:29.008Z,75.18
2023-01-15T21:30:57.107Z,76.11
2023-01-15T21:33:25.326Z,76.11
2023-01-15T21:35:53.332Z,76.18
2023-01-15T21:38:21.561Z,76.29
2023-01-15T21:40:50.963Z,76.70
2023-01-15T21:43:36.998Z,77.48
2023-01-15T21:46:05.939Z,76.33
2023-01-15T21:48:34.515Z,76.29
2023-01-15T21:51:05.133Z,76.55
2023-01-15T21:53:33.803Z,77.07
2023-01-15T21:56:03.207Z,76.76
2023-01-15T21:58:31.445Z,76.66
2023-01-15T22:00:59.542Z,76.62
2023-01-15T22:03:28.229Z,77.34
2023-01-15T22:05:56.235Z,77.59
2023-01-15T22:08:24.456Z,77.38
2023-01-15T22:10:53.102Z,76.87
2023-01-15T22:13:22.751Z,76.65
2023-01-15T22:15:54.539Z,76.01
2023-01-15T22:18:25.647Z,75.29
2023-01-15T22:21:00.163Z,75.38
2023-01-15T22:23:28.609Z,75.00
2023-01-15T22:25:56.714Z,74.27
2023-01-15T22:28:26.331Z,74.32
2023-01-15T22:30:54.359Z,74.52
2023-01-15T22:33:23.242Z,74.49
2023-01-15T22:35:57.487Z,74.65
2023-01-15T22:38:25.924Z,74.11
2023-01-15T22:40:54.296Z,74.37
2023-01-15T22:43:22.584Z,74.16
2023-01-15T22:45:52.006Z,73.91
2023-01-15T22:48:20.433Z,74.16
2023-01-15T22:50:48.488Z,73.74
2023-01-15T22:53:16.733Z,73.55
2023-01-15T22:55:44.831Z,72.61
2023-01-15T22:58:13.091Z,72.28
2023-01-15T23:00:41.072Z,71.81
2023-01-15T23:03:10.653Z,72.41
2023-01-15T23:05:38.986Z,72.26
2023-01-15T23:08:08.009Z,71.69
2023-01-15T23:10:36.016Z,72.17
2023-01-15T23:13:04.431Z,72.52
2023-01-15T23:15:32.450Z,71.96
2023-01-15T23:18:00.725Z,71.87
2023-01-15T23:20:30.079Z,71.11
2023-01-15T23:22:58.373Z,71.14
2023-01-15T23:25:26.410Z,70.99
2023-01-15T23:27:54.696Z,71.36
2023-01-15T23:30:22.739Z,71.65
2023-01-15T23:32:51.104Z,72.11
2023-01-15T23:35:19.499Z,71.77
2023-01-15T23:37:49.266Z,71.77
2023-01-15T23:40:17.573Z,72.01
2023-01-15T23:43:03.267Z,72.81
2023-01-15T23:45:48.944Z,72.40
2023-01-15T23:48:17.258Z,72.14
2023-01-15T23:50:45.197Z,71.49
2023-01-15T23:53:14.821Z,71.80
2023-01-15T23:55:42.874Z,71.97
2023-01-15T23:58:11.114Z,71.42
